Time;durP1;ratioP1;P1;durP2;ratioP2;P2;SDS_P1;SDS_P2;PMS_P1;PMS_P2;Temp;Humidity;BMP_temperature;BMP_pressure;BME280_temperature;BME280_humidity;BME280_pressure;Samples;Min_cycle;Max_cycle;Signal;HPM_P1;HPM_P2
2024/01/24 00:00:27;;;;;;;13.68;4.00;;;;;;;;;;5051937;28;20017;-71
2024/01/24 00:03:12;;;;;;;14.13;3.92;;;;;;;;;;5037668;28;20029;-71
2024/01/24 00:05:58;;;;;;;13.40;4.38;;;;;;;;;;5023568;28;20041;-71
2024/01/24 00:08:43;;;;;;;10.95;5.93;;;;;;;;;;5032873;28;20406;-71
2024/01/24 00:11:29;;;;;;;14.85;5.95;;;;;;;;;;5047895;28;20061;-71
2024/01/24 00:14:15;;;;;;;28.02;5.97;;;;;;;;;;5045557;28;20402;-71
2024/01/24 00:17:01;;;;;;;11.85;5.30;;;;;;;;;;5032308;28;20020;-70
2024/01/24 00:19:47;;;;;;;18.63;5.43;;;;;;;;;;5039367;28;20090;-71
2024/01/24 00:22:32;;;;;;;14.27;4.30;;;;;;;;;;5052702;28;20078;-71
2024/01/24 00:25:18;;;;;;;11.02;5.53;;;;;;;;;;5051903;28;20536;-71
2024/01/24 00:28:05;;;;;;;10.75;4.35;;;;;;;;;;5052483;28;20079;-71
2024/01/24 00:30:50;;;;;;;18.02;5.80;;;;;;;;;;5038407;28;20091;-71
2024/01/24 00:33:36;;;;;;;15.32;5.18;;;;;;;;;;5052401;28;20025;-71
2024/01/24 00:36:23;;;;;;;17.70;5.03;;;;;;;;;;5051542;28;20025;-71
2024/01/24 00:39:09;;;;;;;16.50;5.55;;;;;;;;;;5049019;28;20040;-71
2024/01/24 00:41:58;;;;;;;19.63;5.97;;;;;;;;;;5051165;28;20029;-70
2024/01/24 00:44:45;;;;;;;19.98;6.82;;;;;;;;;;5036022;28;20024;-70
2024/01/24 00:47:30;;;;;;;24.13;6.72;;;;;;;;;;5036659;28;20051;-71
2024/01/24 00:50:16;;;;;;;24.10;5.72;;;;;;;;;;5050653;28;20108;-70
2024/01/24 00:53:06;;;;;;;19.75;6.28;;;;;;;;;;5051895;28;20025;-70
2024/01/24 00:55:51;;;;;;;37.03;7.07;;;;;;;;;;5051465;28;20028;-71
2024/01/24 00:58:37;;;;;;;17.73;4.38;;;;;;;;;;5050887;28;20100;-70
2024/01/24 01:01:23;;;;;;;19.15;5.65;;;;;;;;;;5049914;28;20087;-70
2024/01/24 01:04:08;;;;;;;21.48;5.28;;;;;;;;;;5034233;28;20064;-71
2024/01/24 01:06:54;;;;;;;26.45;6.35;;;;;;;;;;5031311;28;20061;-70
2024/01/24 01:09:40;;;;;;;18.80;4.50;;;;;;;;;;5036756;28;20575;-70
2024/01/24 01:12:25;;;;;;;14.18;5.68;;;;;;;;;;5032101;28;20063;-70
2024/01/24 01:15:11;;;;;;;17.08;6.53;;;;;;;;;;5052354;28;20025;-70
2024/01/24 01:17:56;;;;;;;33.65;7.68;;;;;;;;;;5037216;28;20449;-70
2024/01/24 01:20:42;;;;;;;19.98;4.88;;;;;;;;;;5051329;28;20410;-69
2024/01/24 01:23:29;;;;;;;27.05;8.45;;;;;;;;;;5035049;28;20033;-70
2024/01/24 01:26:14;;;;;;;31.38;7.18;;;;;;;;;;5050744;28;20017;-70
2024/01/24 01:29:00;;;;;;;26.95;6.57;;;;;;;;;;5050278;28;20576;-70
2024/01/24 01:31:46;;;;;;;35.33;5.97;;;;;;;;;;5050020;28;20025;-70
2024/01/24 01:34:31;;;;;;;23.33;6.68;;;;;;;;;;5036093;28;20027;-70
2024/01/24 01:37:17;;;;;;;53.60;6.80;;;;;;;;;;5049466;28;20490;-69
2024/01/24 01:40:04;;;;;;;30.33;5.75;;;;;;;;;;5031831;28;20494;-70
2024/01/24 01:42:49;;;;;;;51.65;8.00;;;;;;;;;;5020029;28;20025;-68
2024/01/24 01:45:35;;;;;;;35.47;6.70;;;;;;;;;;5031947;28;20052;-70
2024/01/24 01:48:21;;;;;;;38.83;6.97;;;;;;;;;;5039234;28;20474;-70
2024/01/24 01:51:06;;;;;;;29.80;6.50;;;;;;;;;;5029929;28;20078;-69
2024/01/24 01:53:52;;;;;;;37.17;6.57;;;;;;;;;;5027864;28;20056;-69
2024/01/24 01:56:38;;;;;;;27.88;6.72;;;;;;;;;;5027095;28;20025;-70
2024/01/24 01:59:25;;;;;;;36.33;5.30;;;;;;;;;;5017312;28;20104;-70
2024/01/24 02:02:11;;;;;;;26.48;5.90;;;;;;;;;;5032424;28;20029;-70
2024/01/24 02:04:57;;;;;;;27.77;4.78;;;;;;;;;;5043425;28;20053;-69
2024/01/24 02:07:43;;;;;;;32.03;7.35;;;;;;;;;;5031060;28;20029;-70
2024/01/24 02:10:29;;;;;;;27.20;5.55;;;;;;;;;;5022049;28;20082;-69
2024/01/24 02:13:15;;;;;;;28.17;7.75;;;;;;;;;;5038986;28;20105;-69
2024/01/24 02:16:02;;;;;;;25.80;4.43;;;;;;;;;;5043908;28;20028;-69
2024/01/24 02:18:49;;;;;;;37.90;5.70;;;;;;;;;;5051730;28;20021;-70
2024/01/24 02:21:35;;;;;;;18.42;3.30;;;;;;;;;;5044806;28;20452;-70
2024/01/24 02:24:21;;;;;;;23.23;5.20;;;;;;;;;;5030334;28;20411;-71
2024/01/24 02:27:08;;;;;;;17.17;4.47;;;;;;;;;;5033706;28;20021;-71
2024/01/24 02:29:57;;;;;;;12.68;3.20;;;;;;;;;;5054672;28;20037;-71
2024/01/24 02:32:43;;;;;;;28.83;5.03;;;;;;;;;;5054431;28;20512;-70
2024/01/24 02:35:29;;;;;;;40.08;6.32;;;;;;;;;;5052508;28;20044;-70
2024/01/24 02:38:14;;;;;;;40.90;6.18;;;;;;;;;;5044868;28;20017;-70
2024/01/24 02:41:00;;;;;;;27.73;5.45;;;;;;;;;;5054435;28;20028;-70
2024/01/24 02:43:46;;;;;;;53.67;7.28;;;;;;;;;;5053232;28;20402;-69
2024/01/24 02:46:31;;;;;;;42.35;7.32;;;;;;;;;;5049834;28;20025;-70
2024/01/24 02:49:17;;;;;;;31.13;5.82;;;;;;;;;;5053003;28;20482;-70
2024/01/24 02:52:03;;;;;;;33.50;5.88;;;;;;;;;;5040041;28;20130;-70
2024/01/24 02:54:48;;;;;;;40.28;5.55;;;;;;;;;;5051106;28;20029;-70
2024/01/24 02:57:34;;;;;;;28.00;4.97;;;;;;;;;;5052888;28;20028;-70
2024/01/24 03:00:20;;;;;;;28.48;6.80;;;;;;;;;;5033480;28;20029;-70
2024/01/24 03:03:05;;;;;;;38.47;6.40;;;;;;;;;;5033659;28;20022;-70
2024/01/24 03:05:51;;;;;;;36.33;7.30;;;;;;;;;;5040695;28;20037;-70
2024/01/24 03:08:50;;;;;;;32.88;6.10;;;;;;;;;;5068946;23;20040;-73
2024/01/24 03:11:37;;;;;;;20.70;7.22;;;;;;;;;;5074836;28;20072;-72
2024/01/24 03:14:24;;;;;;;34.60;5.43;;;;;;;;;;5080598;28;20036;-72
2024/01/24 03:17:10;;;;;;;42.90;8.82;;;;;;;;;;5073916;28;20020;-73
2024/01/24 03:19:55;;;;;;;29.42;4.80;;;;;;;;;;5069591;28;20501;-72
2024/01/24 03:22:41;;;;;;;36.58;4.47;;;;;;;;;;5073014;28;20389;-73
2024/01/24 03:25:27;;;;;;;52.28;10.30;;;;;;;;;;5068701;28;20024;-73
2024/01/24 03:28:12;;;;;;;32.42;8.35;;;;;;;;;;5060197;28;20078;-73
2024/01/24 03:30:59;;;;;;;38.92;7.07;;;;;;;;;;5072867;28;20021;-72
2024/01/24 03:33:44;;;;;;;44.03;6.82;;;;;;;;;;5059613;28;20078;-72
2024/01/24 03:36:30;;;;;;;31.10;7.43;;;;;;;;;;5072294;28;20861;-73
2024/01/24 03:39:16;;;;;;;46.50;7.68;;;;;;;;;;5071083;28;20028;-73
2024/01/24 03:42:02;;;;;;;32.72;6.65;;;;;;;;;;5073789;28;20052;-73
2024/01/24 03:44:48;;;;;;;30.80;5.65;;;;;;;;;;5069265;28;20405;-72
2024/01/24 03:47:33;;;;;;;37.97;6.25;;;;;;;;;;5073724;28;20028;-73
2024/01/24 03:50:22;;;;;;;50.17;8.50;;;;;;;;;;5071828;28;20028;-72
2024/01/24 03:53:08;;;;;;;42.33;9.48;;;;;;;;;;5072648;28;20454;-73
2024/01/24 03:55:53;;;;;;;36.22;7.40;;;;;;;;;;5069436;28;20107;-72
2024/01/24 03:58:39;;;;;;;50.08;6.97;;;;;;;;;;5073148;28;20017;-73
2024/01/24 04:01:30;;;;;;;29.55;7.75;;;;;;;;;;5066145;28;20484;-73
2024/01/24 04:04:16;;;;;;;44.20;5.25;;;;;;;;;;5074476;28;20209;-73
2024/01/24 04:07:01;;;;;;;29.23;6.22;;;;;;;;;;5059275;28;20021;-73
2024/01/24 04:09:47;;;;;;;35.05;5.07;;;;;;;;;;5070655;28;20120;-73
2024/01/24 04:12:33;;;;;;;41.38;5.88;;;;;;;;;;5072832;28;20490;-73
2024/01/24 04:15:18;;;;;;;37.63;6.38;;;;;;;;;;5084983;28;20059;-72
2024/01/24 04:18:04;;;;;;;31.33;6.10;;;;;;;;;;5073937;28;20528;-72
2024/01/24 04:20:50;;;;;;;40.67;7.40;;;;;;;;;;5071700;28;20035;-73
2024/01/24 04:23:35;;;;;;;40.95;7.70;;;;;;;;;;5070192;28;20123;-73
2024/01/24 04:26:22;;;;;;;42.92;8.02;;;;;;;;;;5067953;28;20025;-72
2024/01/24 04:29:08;;;;;;;44.45;7.57;;;;;;;;;;5055003;28;20096;-73
2024/01/24 04:31:53;;;;;;;45.95;7.80;;;;;;;;;;5071655;28;20020;-73
2024/01/24 04:34:39;;;;;;;47.30;8.32;;;;;;;;;;5073264;28;20028;-73
2024/01/24 04:37:25;;;;;;;44.88;6.75;;;;;;;;;;5070692;28;20516;-72
2024/01/24 04:40:11;;;;;;;29.30;6.32;;;;;;;;;;5072902;28;20028;-73
2024/01/24 04:42:57;;;;;;;39.20;6.28;;;;;;;;;;5068117;28;20095;-73
2024/01/24 04:45:43;;;;;;;35.90;5.95;;;;;;;;;;5064993;28;20020;-72
2024/01/24 04:48:28;;;;;;;43.95;7.28;;;;;;;;;;5052592;28;20025;-72
2024/01/24 04:51:14;;;;;;;31.15;6.50;;;;;;;;;;5072811;28;20035;-73
2024/01/24 04:54:00;;;;;;;28.73;6.47;;;;;;;;;;5072069;28;20024;-73
2024/01/24 04:56:46;;;;;;;28.75;5.30;;;;;;;;;;5064619;28;20045;-73
2024/01/24 04:59:32;;;;;;;32.47;7.97;;;;;;;;;;5051839;28;20417;-72
2024/01/24 05:02:19;;;;;;;28.10;5.90;;;;;;;;;;5061611;28;20490;-72
2024/01/24 05:05:06;;;;;;;30.17;5.82;;;;;;;;;;5052823;28;20405;-72
2024/01/24 05:07:52;;;;;;;41.17;9.88;;;;;;;;;;5061927;28;20059;-72
2024/01/24 05:10:38;;;;;;;27.55;6.28;;;;;;;;;;5071001;28;20052;-73
2024/01/24 05:13:26;;;;;;;35.58;6.60;;;;;;;;;;5071696;28;20048;-72
2024/01/24 05:16:12;;;;;;;26.02;5.38;;;;;;;;;;5072446;28;20020;-72
2024/01/24 05:18:57;;;;;;;32.83;5.80;;;;;;;;;;5069964;28;20020;-73
2024/01/24 05:21:43;;;;;;;38.55;7.53;;;;;;;;;;5075368;28;20486;-72
2024/01/24 05:24:28;;;;;;;28.30;6.85;;;;;;;;;;5052792;28;20040;-74
2024/01/24 05:27:14;;;;;;;29.80;6.05;;;;;;;;;;5067350;28;20024;-73
2024/01/24 05:30:00;;;;;;;45.13;7.25;;;;;;;;;;5072176;28;20115;-73
2024/01/24 05:32:46;;;;;;;26.38;5.70;;;;;;;;;;5068604;28;20016;-72
2024/01/24 05:35:32;;;;;;;42.53;8.50;;;;;;;;;;5051745;28;20458;-72
2024/01/24 05:38:18;;;;;;;40.00;6.57;;;;;;;;;;5067010;28;20021;-72
2024/01/24 05:41:04;;;;;;;39.58;6.63;;;;;;;;;;5070922;28;20056;-73
2024/01/24 05:43:49;;;;;;;32.97;6.63;;;;;;;;;;5066606;28;20083;-73
2024/01/24 05:46:35;;;;;;;24.45;6.28;;;;;;;;;;5071527;28;20086;-73
2024/01/24 05:49:20;;;;;;;38.90;7.10;;;;;;;;;;5065784;28;20032;-72
2024/01/24 05:52:06;;;;;;;36.60;7.95;;;;;;;;;;5071439;28;20021;-72
2024/01/24 05:54:52;;;;;;;54.08;7.95;;;;;;;;;;5065352;28;20456;-73
2024/01/24 05:57:41;;;;;;;41.85;6.63;;;;;;;;;;5052336;28;20021;-72
2024/01/24 06:00:26;;;;;;;46.75;8.48;;;;;;;;;;5055129;28;20025;-72
2024/01/24 06:03:12;;;;;;;50.42;6.72;;;;;;;;;;5056744;28;20025;-73
2024/01/24 06:05:57;;;;;;;58.47;9.50;;;;;;;;;;5047284;28;20377;-73
2024/01/24 06:08:44;;;;;;;61.67;7.07;;;;;;;;;;5075715;28;20032;-72
2024/01/24 06:11:29;;;;;;;43.55;7.28;;;;;;;;;;5074415;28;20032;-72
2024/01/24 06:14:15;;;;;;;46.70;8.18;;;;;;;;;;5054699;28;20485;-73
2024/01/24 06:17:01;;;;;;;47.55;7.63;;;;;;;;;;5070588;28;20028;-73
2024/01/24 06:19:47;;;;;;;39.42;8.25;;;;;;;;;;5073393;28;20045;-73
2024/01/24 06:22:35;;;;;;;38.55;6.88;;;;;;;;;;5074835;28;20490;-73
2024/01/24 06:25:21;;;;;;;62.95;8.98;;;;;;;;;;5072116;28;20028;-73
2024/01/24 06:28:07;;;;;;;42.47;8.82;;;;;;;;;;5074843;28;20025;-73
2024/01/24 06:30:52;;;;;;;46.55;8.35;;;;;;;;;;5069358;28;20086;-72
2024/01/24 06:33:38;;;;;;;38.30;8.00;;;;;;;;;;5072572;28;20034;-73
2024/01/24 06:36:24;;;;;;;27.42;9.52;;;;;;;;;;5056048;28;20493;-72
2024/01/24 06:39:09;;;;;;;47.83;6.35;;;;;;;;;;5056016;28;20032;-73
2024/01/24 06:41:56;;;;;;;45.83;7.65;;;;;;;;;;5055582;28;20029;-73
2024/01/24 06:44:41;;;;;;;38.45;7.60;;;;;;;;;;5069598;28;20103;-73
2024/01/24 06:47:27;;;;;;;47.22;7.13;;;;;;;;;;5089258;28;20468;-73
2024/01/24 06:50:13;;;;;;;44.25;8.70;;;;;;;;;;5068073;28;20021;-72
2024/01/24 06:52:59;;;;;;;36.25;7.78;;;;;;;;;;5054210;28;20025;-72
2024/01/24 06:55:44;;;;;;;47.20;7.13;;;;;;;;;;5062563;28;20082;-73
2024/01/24 06:58:30;;;;;;;62.58;9.65;;;;;;;;;;5074815;28;20480;-73
2024/01/24 07:01:16;;;;;;;40.47;6.82;;;;;;;;;;5074670;28;20441;-73
2024/01/24 07:04:02;;;;;;;30.80;6.35;;;;;;;;;;5076343;28;20112;-72
2024/01/24 07:06:47;;;;;;;29.25;6.90;;;;;;;;;;5058235;28;20103;-73
2024/01/24 07:09:35;;;;;;;53.80;9.27;;;;;;;;;;5073447;28;20035;-73
2024/01/24 07:12:20;;;;;;;51.15;7.70;;;;;;;;;;5072558;28;20387;-72
2024/01/24 07:15:06;;;;;;;26.45;5.25;;;;;;;;;;5054826;28;20029;-72
2024/01/24 07:17:54;;;;;;;47.28;6.95;;;;;;;;;;5061299;28;20047;-72
2024/01/24 07:20:40;;;;;;;35.85;6.53;;;;;;;;;;5075705;28;20025;-72
2024/01/24 07:23:25;;;;;;;42.50;6.88;;;;;;;;;;5054400;28;20033;-73
2024/01/24 07:26:11;;;;;;;40.05;6.60;;;;;;;;;;5054459;28;20453;-73
2024/01/24 07:28:57;;;;;;;45.97;7.90;;;;;;;;;;5067617;28;20090;-72
2024/01/24 07:31:42;;;;;;;48.63;7.57;;;;;;;;;;5073833;28;20025;-72
2024/01/24 07:34:28;;;;;;;47.55;10.15;;;;;;;;;;5074431;28;20039;-73
2024/01/24 07:37:14;;;;;;;36.33;9.48;;;;;;;;;;5071105;28;20016;-72
2024/01/24 07:39:59;;;;;;;33.85;8.98;;;;;;;;;;5072117;28;20073;-72
2024/01/24 07:42:45;;;;;;;43.60;8.18;;;;;;;;;;5072869;28;20028;-72
2024/01/24 07:45:30;;;;;;;42.65;7.30;;;;;;;;;;5054380;28;20048;-72
2024/01/24 07:48:16;;;;;;;36.30;7.53;;;;;;;;;;5053163;28;20025;-72
2024/01/24 07:51:06;;;;;;;41.08;7.80;;;;;;;;;;5065930;28;20096;-72
2024/01/24 07:53:54;;;;;;;35.42;7.85;;;;;;;;;;5054090;28;20479;-72
2024/01/24 07:56:40;;;;;;;42.10;7.32;;;;;;;;;;5070613;28;20043;-72
2024/01/24 07:59:25;;;;;;;47.90;8.18;;;;;;;;;;5073196;28;20020;-72
2024/01/24 08:02:13;;;;;;;33.47;7.00;;;;;;;;;;5071109;28;20024;-72
2024/01/24 08:05:01;;;;;;;42.40;8.38;;;;;;;;;;5071848;28;20088;-73
2024/01/24 08:07:46;;;;;;;39.42;9.25;;;;;;;;;;5070337;28;20020;-72
2024/01/24 08:10:32;;;;;;;47.47;9.13;;;;;;;;;;5071966;28;20497;-72
2024/01/24 08:13:19;;;;;;;43.20;7.32;;;;;;;;;;5066920;28;20369;-72
2024/01/24 08:16:07;;;;;;;32.25;6.63;;;;;;;;;;5066369;28;20033;-72
2024/01/24 08:18:55;;;;;;;33.75;6.75;;;;;;;;;;5056277;28;20040;-72
2024/01/24 08:21:40;;;;;;;47.88;6.78;;;;;;;;;;5053962;28;20029;-72
2024/01/24 08:24:26;;;;;;;43.05;7.63;;;;;;;;;;5055537;28;20029;-72
2024/01/24 08:27:15;;;;;;;44.67;8.00;;;;;;;;;;5070355;28;20478;-72
2024/01/24 08:30:00;;;;;;;42.78;6.75;;;;;;;;;;5073386;28;20029;-72
2024/01/24 08:32:46;;;;;;;46.08;7.90;;;;;;;;;;5068795;28;20561;-72
2024/01/24 08:35:35;;;;;;;43.85;7.80;;;;;;;;;;5062532;28;20024;-73
2024/01/24 08:38:24;;;;;;;42.42;8.50;;;;;;;;;;5072986;28;20017;-72
2024/01/24 08:41:10;;;;;;;33.90;8.25;;;;;;;;;;5071617;28;20485;-73
2024/01/24 08:43:57;;;;;;;38.15;7.63;;;;;;;;;;5072884;28;20028;-72
2024/01/24 08:46:43;;;;;;;31.95;6.10;;;;;;;;;;5071317;28;20032;-73
2024/01/24 08:49:28;;;;;;;46.00;8.98;;;;;;;;;;5072708;28;20052;-72
2024/01/24 08:52:14;;;;;;;55.58;9.38;;;;;;;;;;5053453;28;20020;-73
2024/01/24 08:55:00;;;;;;;38.85;7.25;;;;;;;;;;5051407;28;20025;-73
2024/01/24 08:57:45;;;;;;;37.10;8.10;;;;;;;;;;5065548;28;20035;-72
2024/01/24 09:00:31;;;;;;;49.33;8.80;;;;;;;;;;5071766;28;20033;-73
2024/01/24 09:03:18;;;;;;;53.28;9.15;;;;;;;;;;5071567;28;20449;-72
2024/01/24 09:06:04;;;;;;;26.70;7.05;;;;;;;;;;5072233;28;20106;-72
2024/01/24 09:08:53;;;;;;;48.70;7.25;;;;;;;;;;5097819;22;20075;-72
2024/01/24 09:11:38;;;;;;;45.65;10.52;;;;;;;;;;5080947;28;20029;-72
2024/01/24 09:14:24;;;;;;;36.83;9.63;;;;;;;;;;5074280;28;20028;-72
2024/01/24 09:17:11;;;;;;;42.35;7.38;;;;;;;;;;5058032;28;20048;-73
2024/01/24 09:19:57;;;;;;;39.38;7.93;;;;;;;;;;5058005;28;20036;-72
2024/01/24 09:22:43;;;;;;;28.02;6.00;;;;;;;;;;5067064;28;20028;-72
2024/01/24 09:25:28;;;;;;;41.08;9.32;;;;;;;;;;5037219;28;20033;-72
2024/01/24 09:28:14;;;;;;;48.70;8.55;;;;;;;;;;5052771;28;20493;-72
2024/01/24 09:31:01;;;;;;;63.58;8.02;;;;;;;;;;5050332;28;20033;-72
2024/01/24 09:33:46;;;;;;;38.13;8.00;;;;;;;;;;5052865;28;20013;-72
2024/01/24 09:36:32;;;;;;;49.15;7.82;;;;;;;;;;5036869;28;20036;-72
2024/01/24 09:39:18;;;;;;;42.17;6.45;;;;;;;;;;5056544;28;20028;-72
2024/01/24 09:42:11;;;;;;;51.88;9.18;;;;;;;;;;5051904;28;20032;-72
2024/01/24 09:44:58;;;;;;;43.42;7.30;;;;;;;;;;5043429;28;20021;-72
2024/01/24 09:47:45;;;;;;;30.20;5.85;;;;;;;;;;5036503;28;20384;-72
2024/01/24 09:50:31;;;;;;;42.25;8.73;;;;;;;;;;5043733;28;20103;-71
2024/01/24 09:53:20;;;;;;;40.15;7.00;;;;;;;;;;5050316;28;20048;-72
2024/01/24 09:56:06;;;;;;;49.60;8.50;;;;;;;;;;5056908;28;20041;-72
2024/01/24 09:58:52;;;;;;;44.00;8.60;;;;;;;;;;5035550;28;20056;-72
2024/01/24 10:01:39;;;;;;;38.58;9.55;;;;;;;;;;5060538;28;20047;-72
2024/01/24 10:04:26;;;;;;;31.45;7.45;;;;;;;;;;5072519;28;20623;-72
2024/01/24 10:07:12;;;;;;;42.00;10.02;;;;;;;;;;5071220;28;20111;-72
2024/01/24 10:10:09;;;;;;;50.65;10.73;;;;;;;;;;5056954;28;20184;-72
2024/01/24 10:12:55;;;;;;;47.22;8.32;;;;;;;;;;5069495;28;20059;-72
2024/01/24 10:15:40;;;;;;;46.50;9.38;;;;;;;;;;5057384;28;20086;-72
2024/01/24 10:18:26;;;;;;;45.97;6.65;;;;;;;;;;5071740;28;20021;-71
2024/01/24 10:21:13;;;;;;;49.38;9.93;;;;;;;;;;5070544;28;20103;-72
2024/01/24 10:23:59;;;;;;;46.50;8.35;;;;;;;;;;5050129;28;20090;-72
2024/01/24 10:26:44;;;;;;;52.90;7.95;;;;;;;;;;5050238;28;20029;-72
2024/01/24 10:29:30;;;;;;;37.90;7.28;;;;;;;;;;5068374;28;20063;-72
2024/01/24 10:32:16;;;;;;;41.58;7.82;;;;;;;;;;5070297;28;20016;-72
2024/01/24 10:35:05;;;;;;;36.75;7.30;;;;;;;;;;5070582;28;20021;-72
2024/01/24 10:37:52;;;;;;;44.58;8.70;;;;;;;;;;5055352;28;20031;-72
2024/01/24 10:40:39;;;;;;;64.22;8.80;;;;;;;;;;5054886;28;20086;-72
2024/01/24 10:43:25;;;;;;;50.53;8.40;;;;;;;;;;5070125;28;20032;-72
2024/01/24 10:46:11;;;;;;;51.88;9.05;;;;;;;;;;5059865;28;20375;-72
2024/01/24 10:48:56;;;;;;;46.97;7.60;;;;;;;;;;5038521;28;20394;-72
2024/01/24 10:51:43;;;;;;;42.92;9.43;;;;;;;;;;5071896;28;20036;-72
2024/01/24 10:54:31;;;;;;;49.38;9.85;;;;;;;;;;5059192;28;20468;-72
2024/01/24 10:57:18;;;;;;;49.85;7.03;;;;;;;;;;5075729;28;20031;-72
2024/01/24 11:00:05;;;;;;;45.90;7.97;;;;;;;;;;5058265;28;20032;-72
2024/01/24 11:02:52;;;;;;;48.63;7.63;;;;;;;;;;5068216;28;20024;-72
2024/01/24 11:05:45;;;;;;;50.47;9.63;;;;;;;;;;5074085;28;20039;-71
2024/01/24 11:08:35;;;;;;;44.88;8.23;;;;;;;;;;5073078;28;20029;-72
2024/01/24 11:11:21;;;;;;;38.60;7.10;;;;;;;;;;5058214;28;20031;-71
2024/01/24 11:14:08;;;;;;;40.70;8.55;;;;;;;;;;5060142;28;20028;-72
2024/01/24 11:16:54;;;;;;;62.67;9.07;;;;;;;;;;5057749;28;20029;-71
2024/01/24 11:19:40;;;;;;;45.03;7.70;;;;;;;;;;5062779;28;20020;-71
2024/01/24 11:22:25;;;;;;;33.97;5.97;;;;;;;;;;5075061;28;20446;-72
2024/01/24 11:25:11;;;;;;;35.42;7.15;;;;;;;;;;5074290;28;20082;-72
2024/01/24 11:27:57;;;;;;;45.58;8.05;;;;;;;;;;5074005;28;20035;-71
2024/01/24 11:30:43;;;;;;;35.30;7.53;;;;;;;;;;5074514;28;20116;-71
2024/01/24 11:33:28;;;;;;;37.08;8.63;;;;;;;;;;5056991;28;20064;-71
2024/01/24 11:36:14;;;;;;;44.47;6.68;;;;;;;;;;5054871;28;20032;-70
2024/01/24 11:39:00;;;;;;;49.88;9.00;;;;;;;;;;5054534;28;20021;-69
2024/01/24 11:41:45;;;;;;;40.25;8.07;;;;;;;;;;5053295;28;20025;-70
2024/01/24 11:44:31;;;;;;;43.17;8.32;;;;;;;;;;5038169;28;20064;-69
2024/01/24 11:47:16;;;;;;;35.25;6.75;;;;;;;;;;5052845;28;20023;-70
2024/01/24 11:50:03;;;;;;;34.20;7.50;;;;;;;;;;5070383;28;20571;-69
2024/01/24 11:52:49;;;;;;;34.58;6.30;;;;;;;;;;5072797;28;20035;-70
2024/01/24 11:55:35;;;;;;;41.03;5.63;;;;;;;;;;5054872;28;20033;-69
2024/01/24 11:58:25;;;;;;;36.70;8.50;;;;;;;;;;5072280;28;20021;-70
2024/01/24 12:01:11;;;;;;;61.47;14.25;;;;;;;;;;5065472;28;20036;-70
2024/01/24 12:03:57;;;;;;;46.65;8.48;;;;;;;;;;5051583;28;20410;-69
2024/01/24 12:06:42;;;;;;;41.03;10.57;;;;;;;;;;5056232;28;20021;-70
2024/01/24 12:09:28;;;;;;;42.40;7.95;;;;;;;;;;5052052;28;20174;-69
2024/01/24 12:12:14;;;;;;;42.00;8.98;;;;;;;;;;5057860;28;20107;-69
2024/01/24 12:15:00;;;;;;;44.70;7.80;;;;;;;;;;5057064;28;20029;-70
2024/01/24 12:17:45;;;;;;;33.85;9.43;;;;;;;;;;5072244;28;20016;-70
2024/01/24 12:20:33;;;;;;;47.15;9.68;;;;;;;;;;5069734;28;20052;-69
2024/01/24 12:23:20;;;;;;;31.63;8.15;;;;;;;;;;5056873;28;20111;-69
2024/01/24 12:26:06;;;;;;;39.30;7.30;;;;;;;;;;5058739;28;20028;-69
2024/01/24 12:28:51;;;;;;;32.83;6.88;;;;;;;;;;5051343;28;20032;-69
2024/01/24 12:31:42;;;;;;;38.95;8.27;;;;;;;;;;5051832;28;20029;-70
2024/01/24 12:34:29;;;;;;;54.65;10.32;;;;;;;;;;5069945;28;20033;-69
2024/01/24 12:37:14;;;;;;;66.90;10.43;;;;;;;;;;5040587;28;20031;-70
2024/01/24 12:40:05;;;;;;;39.53;7.28;;;;;;;;;;5068015;28;20067;-69
2024/01/24 12:42:50;;;;;;;31.42;8.55;;;;;;;;;;5055252;28;20016;-69
2024/01/24 12:45:36;;;;;;;26.98;7.72;;;;;;;;;;5059779;28;20017;-69
2024/01/24 12:48:22;;;;;;;58.63;9.82;;;;;;;;;;5047878;28;20051;-69
2024/01/24 12:51:07;;;;;;;41.08;9.32;;;;;;;;;;5065546;28;20082;-70
2024/01/24 12:53:53;;;;;;;49.22;10.50;;;;;;;;;;5061209;28;20089;-69
2024/01/24 12:56:39;;;;;;;34.85;9.68;;;;;;;;;;5071573;28;20458;-69
2024/01/24 12:59:24;;;;;;;43.83;8.38;;;;;;;;;;5071552;28;20054;-69
2024/01/24 13:02:12;;;;;;;61.90;9.48;;;;;;;;;;5071039;28;20097;-69
2024/01/24 13:04:58;;;;;;;56.67;10.60;;;;;;;;;;5069376;28;20518;-69
2024/01/24 13:07:44;;;;;;;63.97;11.35;;;;;;;;;;5068041;28;20040;-69
2024/01/24 13:10:32;;;;;;;53.65;11.20;;;;;;;;;;5068110;28;20033;-70
2024/01/24 13:13:18;;;;;;;32.10;8.82;;;;;;;;;;5047570;28;20021;-69
2024/01/24 13:16:04;;;;;;;32.60;9.35;;;;;;;;;;5050845;28;20448;-69
2024/01/24 13:18:49;;;;;;;36.15;9.02;;;;;;;;;;5063878;28;20089;-69
2024/01/24 13:21:36;;;;;;;28.83;7.97;;;;;;;;;;5070115;28;20024;-70
2024/01/24 13:24:22;;;;;;;30.20;8.38;;;;;;;;;;5068221;28;20024;-71
2024/01/24 13:27:07;;;;;;;48.05;11.35;;;;;;;;;;5070794;28;20103;-71
2024/01/24 13:29:53;;;;;;;47.38;9.00;;;;;;;;;;5069749;28;20021;-70
2024/01/24 13:32:40;;;;;;;55.42;11.93;;;;;;;;;;5071597;28;20053;-70
2024/01/24 13:35:25;;;;;;;46.22;9.82;;;;;;;;;;5069666;28;20056;-70
2024/01/24 13:38:11;;;;;;;38.08;7.32;;;;;;;;;;5072644;28;20016;-69
2024/01/24 13:40:57;;;;;;;53.70;9.82;;;;;;;;;;5050932;28;20028;-71
2024/01/24 13:43:43;;;;;;;36.65;7.82;;;;;;;;;;5056314;28;20107;-71
2024/01/24 13:46:28;;;;;;;27.45;8.95;;;;;;;;;;5049061;28;20028;-70
2024/01/24 13:49:14;;;;;;;42.03;10.93;;;;;;;;;;5034878;28;20037;-71
2024/01/24 13:52:00;;;;;;;35.05;7.97;;;;;;;;;;5043308;28;20520;-71
2024/01/24 13:54:46;;;;;;;45.40;10.07;;;;;;;;;;5070750;28;20398;-71
2024/01/24 13:57:31;;;;;;;49.03;9.05;;;;;;;;;;5071163;28;20017;-71
2024/01/24 14:00:17;;;;;;;29.60;5.40;;;;;;;;;;5068462;28;20397;-71
2024/01/24 14:03:04;;;;;;;44.67;14.65;;;;;;;;;;5071108;28;20024;-71
2024/01/24 14:05:49;;;;;;;51.50;9.70;;;;;;;;;;5065414;28;20107;-71
2024/01/24 14:08:37;;;;;;;47.05;8.32;;;;;;;;;;5035623;28;20060;-71
2024/01/24 14:11:22;;;;;;;48.22;9.02;;;;;;;;;;5036609;28;20025;-72
2024/01/24 14:14:08;;;;;;;41.88;10.10;;;;;;;;;;5050771;28;20552;-71
2024/01/24 14:16:54;;;;;;;42.78;8.77;;;;;;;;;;5051411;28;20037;-71
2024/01/24 14:19:39;;;;;;;39.05;8.73;;;;;;;;;;5051223;28;20417;-71
2024/01/24 14:22:25;;;;;;;49.40;7.97;;;;;;;;;;5040949;28;20025;-71
2024/01/24 14:25:10;;;;;;;43.45;9.02;;;;;;;;;;5057195;28;20037;-71
2024/01/24 14:27:56;;;;;;;43.15;7.47;;;;;;;;;;5054223;28;20442;-70
2024/01/24 14:30:42;;;;;;;42.47;6.35;;;;;;;;;;5041898;28;20032;-70
2024/01/24 14:33:27;;;;;;;56.03;13.77;;;;;;;;;;5044779;28;20050;-70
2024/01/24 14:36:13;;;;;;;52.40;7.32;;;;;;;;;;5067535;28;20114;-70
2024/01/24 14:38:59;;;;;;;47.75;7.95;;;;;;;;;;5063468;28;20086;-70
2024/01/24 14:41:44;;;;;;;38.58;8.98;;;;;;;;;;5046757;28;20029;-70
2024/01/24 14:44:30;;;;;;;35.03;8.25;;;;;;;;;;5063137;28;20112;-70
2024/01/24 14:47:16;;;;;;;43.47;9.38;;;;;;;;;;5053444;28;20063;-70
2024/01/24 14:50:02;;;;;;;35.60;9.18;;;;;;;;;;5075375;28;20103;-70
2024/01/24 14:52:48;;;;;;;30.92;7.25;;;;;;;;;;5059943;28;20054;-69
2024/01/24 14:55:33;;;;;;;47.70;9.20;;;;;;;;;;5072814;28;20488;-70
2024/01/24 14:58:19;;;;;;;35.90;8.90;;;;;;;;;;5062140;28;20114;-70
2024/01/24 15:01:04;;;;;;;64.90;9.48;;;;;;;;;;5065948;28;20032;-70
2024/01/24 15:03:50;;;;;;;36.20;10.38;;;;;;;;;;5062268;28;20025;-72
2024/01/24 15:06:36;;;;;;;33.75;10.90;;;;;;;;;;5059785;28;20351;-70
2024/01/24 15:11:55;;;;;;;44.47;9.55;;;;;;;;;;5054562;28;20434;-72
2024/01/24 15:14:40;;;;;;;41.45;6.72;;;;;;;;;;5055214;28;20025;-73
2024/01/24 15:17:27;;;;;;;45.15;9.30;;;;;;;;;;5054192;28;20493;-73
2024/01/24 15:20:12;;;;;;;48.72;9.93;;;;;;;;;;5043469;28;20029;-73
2024/01/24 15:22:58;;;;;;;45.67;8.27;;;;;;;;;;5055018;28;20052;-72
2024/01/24 15:25:44;;;;;;;40.53;8.30;;;;;;;;;;5043985;28;20494;-72
2024/01/24 15:28:29;;;;;;;49.78;8.10;;;;;;;;;;5047398;28;20024;-72
2024/01/24 15:31:17;;;;;;;42.38;8.85;;;;;;;;;;5053721;28;20075;-72
2024/01/24 15:34:03;;;;;;;41.97;7.57;;;;;;;;;;5054734;28;20021;-72
2024/01/24 15:36:49;;;;;;;48.42;11.00;;;;;;;;;;5054126;28;20427;-73
2024/01/24 15:39:35;;;;;;;75.47;15.85;;;;;;;;;;5051149;28;20039;-72
2024/01/24 15:42:21;;;;;;;34.70;9.32;;;;;;;;;;5025349;28;20435;-72
2024/01/24 15:45:09;;;;;;;47.90;9.77;;;;;;;;;;5044246;28;20433;-72
2024/01/24 15:47:55;;;;;;;33.80;7.30;;;;;;;;;;5048194;28;20044;-72
2024/01/24 15:50:41;;;;;;;70.70;18.77;;;;;;;;;;5054306;28;20371;-72
2024/01/24 15:53:26;;;;;;;27.38;9.95;;;;;;;;;;5055161;28;20021;-72
2024/01/24 15:56:12;;;;;;;39.47;10.82;;;;;;;;;;5054003;28;20470;-72
2024/01/24 15:58:58;;;;;;;40.17;7.63;;;;;;;;;;5053644;28;20049;-73
2024/01/24 16:01:47;;;;;;;68.40;20.27;;;;;;;;;;5053346;28;20021;-72
2024/01/24 16:04:35;;;;;;;40.45;9.05;;;;;;;;;;5054878;28;20025;-73
2024/01/24 16:07:21;;;;;;;54.25;13.82;;;;;;;;;;5054044;28;20110;-72
2024/01/24 16:10:07;;;;;;;48.05;10.25;;;;;;;;;;5053980;28;20035;-73
2024/01/24 16:12:52;;;;;;;50.25;12.43;;;;;;;;;;5043428;28;20079;-72
2024/01/24 16:15:38;;;;;;;40.08;12.75;;;;;;;;;;5034070;28;20036;-72
2024/01/24 16:18:24;;;;;;;56.83;14.25;;;;;;;;;;5040184;28;20543;-72
2024/01/24 16:21:09;;;;;;;58.90;14.57;;;;;;;;;;5032961;28;20018;-72